sensor_id;sensor_type;location;lat;lon;timestamp;temperature;humidity
72602;DHT22;60644;55.858;37.390;2022-11-12T00:02:36;9.39;80.94
72602;DHT22;60644;55.858;37.390;2022-11-12T00:05:21;9.37;81.07
72602;DHT22;60644;55.858;37.390;2022-11-12T00:08:06;9.30;81.28
72602;DHT22;60644;55.858;37.390;2022-11-12T00:10:50;9.26;81.55
72602;DHT22;60644;55.858;37.390;2022-11-12T00:13:35;9.27;81.61
72602;DHT22;60644;55.858;37.390;2022-11-12T00:16:19;9.22;81.56
72602;DHT22;60644;55.858;37.390;2022-11-12T00:19:04;9.24;81.65
72602;DHT22;60644;55.858;37.390;2022-11-12T00:21:48;9.25;81.66
72602;DHT22;60644;55.858;37.390;2022-11-12T00:24:33;9.17;82.07
72602;DHT22;60644;55.858;37.390;2022-11-12T00:27:17;9.17;82.53
72602;DHT22;60644;55.858;37.390;2022-11-12T00:30:03;9.22;82.55
72602;DHT22;60644;55.858;37.390;2022-11-12T00:32:47;9.35;82.01
72602;DHT22;60644;55.858;37.390;2022-11-12T00:35:33;9.42;81.53
72602;DHT22;60644;55.858;37.390;2022-11-12T00:38:17;9.44;81.20
72602;DHT22;60644;55.858;37.390;2022-11-12T00:41:02;9.48;81.04
72602;DHT22;60644;55.858;37.390;2022-11-12T00:43:46;9.53;80.92
72602;DHT22;60644;55.858;37.390;2022-11-12T00:46:31;9.40;81.00
72602;DHT22;60644;55.858;37.390;2022-11-12T00:49:15;9.41;81.46
72602;DHT22;60644;55.858;37.390;2022-11-12T00:52:00;9.37;81.68
72602;DHT22;60644;55.858;37.390;2022-11-12T00:54:44;9.27;82.58
72602;DHT22;60644;55.858;37.390;2022-11-12T00:57:29;9.39;82.04
72602;DHT22;60644;55.858;37.390;2022-11-12T01:00:16;9.45;81.65
72602;DHT22;60644;55.858;37.390;2022-11-12T01:03:01;9.50;81.31
72602;DHT22;60644;55.858;37.390;2022-11-12T01:05:45;9.55;81.10
72602;DHT22;60644;55.858;37.390;2022-11-12T01:08:30;9.56;81.00
72602;DHT22;60644;55.858;37.390;2022-11-12T01:11:20;9.56;80.92
72602;DHT22;60644;55.858;37.390;2022-11-12T01:14:06;9.56;80.86
72602;DHT22;60644;55.858;37.390;2022-11-12T01:16:51;9.52;81.10
72602;DHT22;60644;55.858;37.390;2022-11-12T01:19:35;9.38;82.02
72602;DHT22;60644;55.858;37.390;2022-11-12T01:22:20;9.35;82.05
72602;DHT22;60644;55.858;37.390;2022-11-12T01:25:05;9.42;81.89
72602;DHT22;60644;55.858;37.390;2022-11-12T01:27:49;9.47;81.68
72602;DHT22;60644;55.858;37.390;2022-11-12T01:30:33;9.50;81.53
72602;DHT22;60644;55.858;37.390;2022-11-12T01:33:18;9.49;81.59
72602;DHT22;60644;55.858;37.390;2022-11-12T01:36:03;9.48;81.68
72602;DHT22;60644;55.858;37.390;2022-11-12T01:38:48;9.52;81.65
72602;DHT22;60644;55.858;37.390;2022-11-12T01:41:35;9.51;81.59
72602;DHT22;60644;55.858;37.390;2022-11-12T01:44:22;9.53;81.62
72602;DHT22;60644;55.858;37.390;2022-11-12T01:47:19;9.52;81.88
72602;DHT22;60644;55.858;37.390;2022-11-12T01:50:22;9.49;82.22
72602;DHT22;60644;55.858;37.390;2022-11-12T01:53:10;9.52;82.39
72602;DHT22;60644;55.858;37.390;2022-11-12T01:55:56;9.55;82.15
72602;DHT22;60644;55.858;37.390;2022-11-12T01:58:43;9.54;82.08
72602;DHT22;60644;55.858;37.390;2022-11-12T02:01:29;9.57;81.90
72602;DHT22;60644;55.858;37.390;2022-11-12T02:04:14;9.53;82.00
72602;DHT22;60644;55.858;37.390;2022-11-12T02:06:59;9.55;81.97
72602;DHT22;60644;55.858;37.390;2022-11-12T02:09:44;9.53;82.28
72602;DHT22;60644;55.858;37.390;2022-11-12T02:12:30;9.54;82.35
72602;DHT22;60644;55.858;37.390;2022-11-12T02:15:33;9.48;82.56
72602;DHT22;60644;55.858;37.390;2022-11-12T02:18:18;9.56;82.40
72602;DHT22;60644;55.858;37.390;2022-11-12T02:21:05;9.61;82.10
72602;DHT22;60644;55.858;37.390;2022-11-12T02:26:55;9.69;81.78
72602;DHT22;60644;55.858;37.390;2022-11-12T02:29:40;9.74;81.56
72602;DHT22;60644;55.858;37.390;2022-11-12T02:32:31;9.70;81.50
72602;DHT22;60644;55.858;37.390;2022-11-12T02:35:15;9.71;81.44
72602;DHT22;60644;55.858;37.390;2022-11-12T02:38:00;9.74;81.37
72602;DHT22;60644;55.858;37.390;2022-11-12T02:40:45;9.76;81.24
72602;DHT22;60644;55.858;37.390;2022-11-12T02:43:29;9.56;81.95
72602;DHT22;60644;55.858;37.390;2022-11-12T02:46:14;9.57;82.00
72602;DHT22;60644;55.858;37.390;2022-11-12T02:48:58;9.60;82.01
72602;DHT22;60644;55.858;37.390;2022-11-12T02:51:43;9.69;81.77
72602;DHT22;60644;55.858;37.390;2022-11-12T02:54:27;9.75;81.53
72602;DHT22;60644;55.858;37.390;2022-11-12T02:57:12;9.77;81.39
72602;DHT22;60644;55.858;37.390;2022-11-12T02:59:57;9.78;81.31
72602;DHT22;60644;55.858;37.390;2022-11-12T03:02:41;9.81;81.50
72602;DHT22;60644;55.858;37.390;2022-11-12T03:05:31;9.84;81.43
72602;DHT22;60644;55.858;37.390;2022-11-12T03:08:15;9.85;81.24
72602;DHT22;60644;55.858;37.390;2022-11-12T03:11:09;9.86;81.17
72602;DHT22;60644;55.858;37.390;2022-11-12T03:13:53;9.82;81.40
72602;DHT22;60644;55.858;37.390;2022-11-12T03:16:38;9.83;81.44
72602;DHT22;60644;55.858;37.390;2022-11-12T03:19:22;9.84;81.58
72602;DHT22;60644;55.858;37.390;2022-11-12T03:22:07;9.88;81.37
72602;DHT22;60644;55.858;37.390;2022-11-12T03:24:51;9.86;81.44
72602;DHT22;60644;55.858;37.390;2022-11-12T03:27:36;9.89;81.33
72602;DHT22;60644;55.858;37.390;2022-11-12T03:30:20;9.91;81.23
72602;DHT22;60644;55.858;37.390;2022-11-12T03:33:07;9.85;81.52
72602;DHT22;60644;55.858;37.390;2022-11-12T03:35:52;9.79;81.86
72602;DHT22;60644;55.858;37.390;2022-11-12T03:38:36;9.80;81.81
72602;DHT22;60644;55.858;37.390;2022-11-12T03:41:21;9.81;81.81
72602;DHT22;60644;55.858;37.390;2022-11-12T03:44:05;9.86;81.72
72602;DHT22;60644;55.858;37.390;2022-11-12T03:46:50;9.90;81.57
72602;DHT22;60644;55.858;37.390;2022-11-12T03:49:34;9.89;81.50
72602;DHT22;60644;55.858;37.390;2022-11-12T03:52:19;9.90;81.48
72602;DHT22;60644;55.858;37.390;2022-11-12T03:55:05;9.93;81.43
72602;DHT22;60644;55.858;37.390;2022-11-12T03:57:51;9.92;81.28
72602;DHT22;60644;55.858;37.390;2022-11-12T04:00:36;9.92;81.41
72602;DHT22;60644;55.858;37.390;2022-11-12T04:03:20;9.85;81.67
72602;DHT22;60644;55.858;37.390;2022-11-12T04:06:05;9.88;81.90
72602;DHT22;60644;55.858;37.390;2022-11-12T04:09:08;9.88;81.84
72602;DHT22;60644;55.858;37.390;2022-11-12T04:11:53;9.76;82.41
72602;DHT22;60644;55.858;37.390;2022-11-12T04:14:38;9.85;82.03
72602;DHT22;60644;55.858;37.390;2022-11-12T04:17:22;9.83;81.92
72602;DHT22;60644;55.858;37.390;2022-11-12T04:20:25;9.93;81.66
72602;DHT22;60644;55.858;37.390;2022-11-12T04:23:28;9.96;81.40
72602;DHT22;60644;55.858;37.390;2022-11-12T04:26:13;9.97;81.25
72602;DHT22;60644;55.858;37.390;2022-11-12T04:29:06;9.90;81.81
72602;DHT22;60644;55.858;37.390;2022-11-12T04:32:10;9.86;82.03
72602;DHT22;60644;55.858;37.390;2022-11-12T04:34:54;9.95;81.76
72602;DHT22;60644;55.858;37.390;2022-11-12T04:37:39;9.90;81.89
72602;DHT22;60644;55.858;37.390;2022-11-12T04:40:30;9.97;81.66
72602;DHT22;60644;55.858;37.390;2022-11-12T04:43:33;10.00;81.48
72602;DHT22;60644;55.858;37.390;2022-11-12T04:46:36;10.03;81.31
72602;DHT22;60644;55.858;37.390;2022-11-12T04:49:20;10.03;81.23
72602;DHT22;60644;55.858;37.390;2022-11-12T04:52:05;9.97;81.68
72602;DHT22;60644;55.858;37.390;2022-11-12T04:54:49;9.95;81.84
72602;DHT22;60644;55.858;37.390;2022-11-12T04:57:34;9.93;81.84
72602;DHT22;60644;55.858;37.390;2022-11-12T05:00:19;9.96;81.65
72602;DHT22;60644;55.858;37.390;2022-11-12T05:03:03;9.98;81.69
72602;DHT22;60644;55.858;37.390;2022-11-12T05:05:48;10.05;81.44
72602;DHT22;60644;55.858;37.390;2022-11-12T05:08:32;10.07;81.21
72602;DHT22;60644;55.858;37.390;2022-11-12T05:11:17;10.06;81.30
72602;DHT22;60644;55.858;37.390;2022-11-12T05:14:01;10.11;81.62
72602;DHT22;60644;55.858;37.390;2022-11-12T05:16:46;10.15;81.39
72602;DHT22;60644;55.858;37.390;2022-11-12T05:19:31;10.20;81.11
72602;DHT22;60644;55.858;37.390;2022-11-12T05:22:16;10.23;80.79
72602;DHT22;60644;55.858;37.390;2022-11-12T05:25:01;10.20;80.66
72602;DHT22;60644;55.858;37.390;2022-11-12T05:27:45;10.16;80.73
72602;DHT22;60644;55.858;37.390;2022-11-12T05:30:30;10.18;80.78
72602;DHT22;60644;55.858;37.390;2022-11-12T05:33:14;10.22;80.65
72602;DHT22;60644;55.858;37.390;2022-11-12T05:35:59;10.18;80.88
72602;DHT22;60644;55.858;37.390;2022-11-12T05:38:44;10.13;81.08
72602;DHT22;60644;55.858;37.390;2022-11-12T05:41:29;10.20;80.80
72602;DHT22;60644;55.858;37.390;2022-11-12T05:44:13;10.18;81.21
72602;DHT22;60644;55.858;37.390;2022-11-12T05:46:58;10.24;80.75
72602;DHT22;60644;55.858;37.390;2022-11-12T05:49:42;10.06;81.50
72602;DHT22;60644;55.858;37.390;2022-11-12T05:52:29;10.09;81.49
72602;DHT22;60644;55.858;37.390;2022-11-12T05:55:14;10.21;81.08
72602;DHT22;60644;55.858;37.390;2022-11-12T05:58:03;10.26;80.77
72602;DHT22;60644;55.858;37.390;2022-11-12T06:00:47;10.31;80.44
72602;DHT22;60644;55.858;37.390;2022-11-12T06:03:32;10.37;80.33
72602;DHT22;60644;55.858;37.390;2022-11-12T06:06:16;10.37;80.31
72602;DHT22;60644;55.858;37.390;2022-11-12T06:09:01;10.39;80.14
72602;DHT22;60644;55.858;37.390;2022-11-12T06:11:45;10.36;80.27
72602;DHT22;60644;55.858;37.390;2022-11-12T06:14:30;10.42;80.17
72602;DHT22;60644;55.858;37.390;2022-11-12T06:17:14;10.41;80.06
72602;DHT22;60644;55.858;37.390;2022-11-12T06:19:59;10.43;79.98
72602;DHT22;60644;55.858;37.390;2022-11-12T06:22:43;10.50;80.06
72602;DHT22;60644;55.858;37.390;2022-11-12T06:25:28;10.53;79.98
72602;DHT22;60644;55.858;37.390;2022-11-12T06:28:12;10.45;80.01
72602;DHT22;60644;55.858;37.390;2022-11-12T06:30:57;10.54;79.80
72602;DHT22;60644;55.858;37.390;2022-11-12T06:33:42;10.57;79.62
72602;DHT22;60644;55.858;37.390;2022-11-12T06:36:26;10.59;79.62
72602;DHT22;60644;55.858;37.390;2022-11-12T06:39:11;10.53;79.97
72602;DHT22;60644;55.858;37.390;2022-11-12T06:41:56;10.53;80.03
72602;DHT22;60644;55.858;37.390;2022-11-12T06:44:40;10.50;80.28
72602;DHT22;60644;55.858;37.390;2022-11-12T06:47:25;10.57;80.06
72602;DHT22;60644;55.858;37.390;2022-11-12T06:50:10;10.59;79.83
72602;DHT22;60644;55.858;37.390;2022-11-12T06:52:58;10.60;79.79
72602;DHT22;60644;55.858;37.390;2022-11-12T06:55:42;10.63;79.69
72602;DHT22;60644;55.858;37.390;2022-11-12T06:58:27;10.69;79.62
72602;DHT22;60644;55.858;37.390;2022-11-12T07:01:15;10.58;79.88
72602;DHT22;60644;55.858;37.390;2022-11-12T07:04:00;10.63;80.04
72602;DHT22;60644;55.858;37.390;2022-11-12T07:06:44;10.62;79.78
72602;DHT22;60644;55.858;37.390;2022-11-12T07:09:29;10.64;80.01
72602;DHT22;60644;55.858;37.390;2022-11-12T07:12:13;10.58;80.12
72602;DHT22;60644;55.858;37.390;2022-11-12T07:14:58;10.62;80.07
72602;DHT22;60644;55.858;37.390;2022-11-12T07:17:44;10.55;80.49
72602;DHT22;60644;55.858;37.390;2022-11-12T07:20:29;10.53;80.48
72602;DHT22;60644;55.858;37.390;2022-11-12T07:23:14;10.55;80.56
72602;DHT22;60644;55.858;37.390;2022-11-12T07:26:00;10.60;80.25
72602;DHT22;60644;55.858;37.390;2022-11-12T07:28:46;10.66;79.56
72602;DHT22;60644;55.858;37.390;2022-11-12T07:31:31;10.57;80.36
72602;DHT22;60644;55.858;37.390;2022-11-12T07:34:15;10.62;80.20
72602;DHT22;60644;55.858;37.390;2022-11-12T07:37:00;10.63;79.90
72602;DHT22;60644;55.858;37.390;2022-11-12T07:39:45;10.65;79.92
72602;DHT22;60644;55.858;37.390;2022-11-12T07:42:34;10.64;80.19
72602;DHT22;60644;55.858;37.390;2022-11-12T07:45:18;10.71;79.73
72602;DHT22;60644;55.858;37.390;2022-11-12T07:48:03;10.62;80.66
72602;DHT22;60644;55.858;37.390;2022-11-12T07:50:48;10.71;80.14
72602;DHT22;60644;55.858;37.390;2022-11-12T07:53:33;10.70;79.51
72602;DHT22;60644;55.858;37.390;2022-11-12T07:56:20;10.72;79.96
72602;DHT22;60644;55.858;37.390;2022-11-12T07:59:04;10.78;79.91
72602;DHT22;60644;55.858;37.390;2022-11-12T08:01:50;10.84;79.72
72602;DHT22;60644;55.858;37.390;2022-11-12T08:04:35;10.69;80.54
72602;DHT22;60644;55.858;37.390;2022-11-12T08:07:19;10.68;80.75
72602;DHT22;60644;55.858;37.390;2022-11-12T08:10:05;10.60;81.23
72602;DHT22;60644;55.858;37.390;2022-11-12T08:12:49;10.62;81.12
72602;DHT22;60644;55.858;37.390;2022-11-12T08:15:34;10.63;81.11
72602;DHT22;60644;55.858;37.390;2022-11-12T08:18:18;10.53;81.92
72602;DHT22;60644;55.858;37.390;2022-11-12T08:21:05;10.60;81.36
72602;DHT22;60644;55.858;37.390;2022-11-12T08:23:50;10.59;81.86
72602;DHT22;60644;55.858;37.390;2022-11-12T08:26:35;10.64;81.80
72602;DHT22;60644;55.858;37.390;2022-11-12T08:29:19;10.60;81.53
72602;DHT22;60644;55.858;37.390;2022-11-12T08:32:06;10.56;81.91
72602;DHT22;60644;55.858;37.390;2022-11-12T08:34:51;10.63;81.65
72602;DHT22;60644;55.858;37.390;2022-11-12T08:37:35;10.57;81.72
72602;DHT22;60644;55.858;37.390;2022-11-12T08:40:20;10.56;81.71
72602;DHT22;60644;55.858;37.390;2022-11-12T08:43:09;10.55;81.32
72602;DHT22;60644;55.858;37.390;2022-11-12T08:45:56;10.64;81.94
72602;DHT22;60644;55.858;37.390;2022-11-12T08:48:41;10.70;81.52
72602;DHT22;60644;55.858;37.390;2022-11-12T08:51:25;10.66;81.55
72602;DHT22;60644;55.858;37.390;2022-11-12T08:54:10;10.59;81.92
72602;DHT22;60644;55.858;37.390;2022-11-12T08:56:54;10.69;81.49
72602;DHT22;60644;55.858;37.390;2022-11-12T08:59:39;10.70;81.81
72602;DHT22;60644;55.858;37.390;2022-11-12T09:02:23;10.69;81.78
72602;DHT22;60644;55.858;37.390;2022-11-12T09:05:08;10.65;81.96
72602;DHT22;60644;55.858;37.390;2022-11-12T09:07:57;10.63;82.20
72602;DHT22;60644;55.858;37.390;2022-11-12T09:10:42;10.66;82.17
72602;DHT22;60644;55.858;37.390;2022-11-12T09:13:26;10.67;82.02
72602;DHT22;60644;55.858;37.390;2022-11-12T09:16:11;10.74;81.72
72602;DHT22;60644;55.858;37.390;2022-11-12T09:18:55;10.81;81.48
72602;DHT22;60644;55.858;37.390;2022-11-12T09:21:40;10.81;81.33
72602;DHT22;60644;55.858;37.390;2022-11-12T09:24:24;10.64;81.94
72602;DHT22;60644;55.858;37.390;2022-11-12T09:27:09;10.77;81.44
72602;DHT22;60644;55.858;37.390;2022-11-12T09:29:53;10.74;81.55
72602;DHT22;60644;55.858;37.390;2022-11-12T09:32:37;10.75;81.73
72602;DHT22;60644;55.858;37.390;2022-11-12T09:35:22;10.75;81.56
72602;DHT22;60644;55.858;37.390;2022-11-12T09:38:07;10.83;81.75
72602;DHT22;60644;55.858;37.390;2022-11-12T09:40:54;10.87;81.23
72602;DHT22;60644;55.858;37.390;2022-11-12T09:43:50;10.87;81.55
72602;DHT22;60644;55.858;37.390;2022-11-12T09:46:48;10.85;81.04
72602;DHT22;60644;55.858;37.390;2022-11-12T09:49:41;10.98;80.88
72602;DHT22;60644;55.858;37.390;2022-11-12T09:52:29;11.07;80.78
72602;DHT22;60644;55.858;37.390;2022-11-12T09:55:20;11.04;80.63
72602;DHT22;60644;55.858;37.390;2022-11-12T09:58:10;10.98;80.91
72602;DHT22;60644;55.858;37.390;2022-11-12T10:00:59;10.97;80.99
72602;DHT22;60644;55.858;37.390;2022-11-12T10:07:26;10.92;81.20
72602;DHT22;60644;55.858;37.390;2022-11-12T10:10:19;11.04;80.98
72602;DHT22;60644;55.858;37.390;2022-11-12T10:16:06;11.09;80.71
72602;DHT22;60644;55.858;37.390;2022-11-12T10:22:30;11.27;80.24
72602;DHT22;60644;55.858;37.390;2022-11-12T10:25:19;11.26;80.13
72602;DHT22;60644;55.858;37.390;2022-11-12T10:31:10;11.22;80.53
72602;DHT22;60644;55.858;37.390;2022-11-12T10:37:14;11.11;81.71
72602;DHT22;60644;55.858;37.390;2022-11-12T10:46:32;11.13;81.42
72602;DHT22;60644;55.858;37.390;2022-11-12T10:52:02;10.98;82.65
72602;DHT22;60644;55.858;37.390;2022-11-12T10:54:47;10.94;82.83
72602;DHT22;60644;55.858;37.390;2022-11-12T10:57:31;11.01;82.65
72602;DHT22;60644;55.858;37.390;2022-11-12T11:00:19;10.93;82.70
72602;DHT22;60644;55.858;37.390;2022-11-12T11:03:14;11.02;82.98
72602;DHT22;60644;55.858;37.390;2022-11-12T11:06:03;10.95;83.04
72602;DHT22;60644;55.858;37.390;2022-11-12T11:08:51;11.07;82.71
72602;DHT22;60644;55.858;37.390;2022-11-12T11:11:35;11.02;82.78
72602;DHT22;60644;55.858;37.390;2022-11-12T11:17:15;11.00;83.24
72602;DHT22;60644;55.858;37.390;2022-11-12T11:20:01;10.99;82.86
72602;DHT22;60644;55.858;37.390;2022-11-12T11:22:51;11.00;83.07
72602;DHT22;60644;55.858;37.390;2022-11-12T11:25:38;11.03;82.75
72602;DHT22;60644;55.858;37.390;2022-11-12T11:28:45;10.97;82.93
72602;DHT22;60644;55.858;37.390;2022-11-12T11:37:28;10.93;83.06
72602;DHT22;60644;55.858;37.390;2022-11-12T11:40:33;11.04;83.08
72602;DHT22;60644;55.858;37.390;2022-11-12T11:47:19;11.01;83.35
72602;DHT22;60644;55.858;37.390;2022-11-12T11:50:24;11.08;83.06
72602;DHT22;60644;55.858;37.390;2022-11-12T11:53:26;11.04;83.11
72602;DHT22;60644;55.858;37.390;2022-11-12T11:56:26;11.03;83.44
72602;DHT22;60644;55.858;37.390;2022-11-12T12:20:45;11.31;82.72
72602;DHT22;60644;55.858;37.390;2022-11-12T12:26:36;11.32;82.75
72602;DHT22;60644;55.858;37.390;2022-11-12T12:29:42;11.41;82.41
72602;DHT22;60644;55.858;37.390;2022-11-12T12:32:34;11.39;82.28
72602;DHT22;60644;55.858;37.390;2022-11-12T12:35:33;11.41;82.21
72602;DHT22;60644;55.858;37.390;2022-11-12T12:44:02;11.48;82.15
72602;DHT22;60644;55.858;37.390;2022-11-12T12:47:08;11.49;82.01
72602;DHT22;60644;55.858;37.390;2022-11-12T12:49:57;11.52;81.73
72602;DHT22;60644;55.858;37.390;2022-11-12T12:56:00;11.43;82.04
72602;DHT22;60644;55.858;37.390;2022-11-12T12:58:52;11.45;82.56
72602;DHT22;60644;55.858;37.390;2022-11-12T13:01:38;11.44;82.29
72602;DHT22;60644;55.858;37.390;2022-11-12T13:04:52;11.48;82.20
72602;DHT22;60644;55.858;37.390;2022-11-12T13:07:42;11.54;81.93
72602;DHT22;60644;55.858;37.390;2022-11-12T13:13:33;11.58;82.23
72602;DHT22;60644;55.858;37.390;2022-11-12T13:17:00;11.49;82.60
72602;DHT22;60644;55.858;37.390;2022-11-12T13:25:28;11.67;82.16
72602;DHT22;60644;55.858;37.390;2022-11-12T13:28:12;11.70;82.17
72602;DHT22;60644;55.858;37.390;2022-11-12T13:30:59;11.61;82.64
72602;DHT22;60644;55.858;37.390;2022-11-12T13:33:45;11.70;82.36
72602;DHT22;60644;55.858;37.390;2022-11-12T13:36:30;11.57;82.76
72602;DHT22;60644;55.858;37.390;2022-11-12T13:39:17;11.75;82.21
72602;DHT22;60644;55.858;37.390;2022-11-12T13:42:15;11.79;81.89
72602;DHT22;60644;55.858;37.390;2022-11-12T13:45:21;11.83;81.97
72602;DHT22;60644;55.858;37.390;2022-11-12T13:48:08;11.84;81.90
72602;DHT22;60644;55.858;37.390;2022-11-12T13:51:18;11.89;81.78
72602;DHT22;60644;55.858;37.390;2022-11-12T13:54:33;11.86;81.95
72602;DHT22;60644;55.858;37.390;2022-11-12T14:03:01;11.96;81.76
72602;DHT22;60644;55.858;37.390;2022-11-12T14:05:48;11.98;81.75
72602;DHT22;60644;55.858;37.390;2022-11-12T14:14:37;12.00;81.77
72602;DHT22;60644;55.858;37.390;2022-11-12T14:17:30;12.03;81.76
72602;DHT22;60644;55.858;37.390;2022-11-12T14:20:37;12.00;81.91
72602;DHT22;60644;55.858;37.390;2022-11-12T14:23:23;12.03;81.88
72602;DHT22;60644;55.858;37.390;2022-11-12T14:26:10;12.03;81.99
72602;DHT22;60644;55.858;37.390;2022-11-12T14:28:56;12.06;81.97
72602;DHT22;60644;55.858;37.390;2022-11-12T14:31:40;12.08;82.14
72602;DHT22;60644;55.858;37.390;2022-11-12T14:34:32;12.10;82.11
72602;DHT22;60644;55.858;37.390;2022-11-12T14:37:34;12.13;82.01
72602;DHT22;60644;55.858;37.390;2022-11-12T14:40:19;12.15;81.81
72602;DHT22;60644;55.858;37.390;2022-11-12T14:43:04;12.16;81.79
72602;DHT22;60644;55.858;37.390;2022-11-12T14:45:51;12.19;81.60
72602;DHT22;60644;55.858;37.390;2022-11-12T14:48:46;12.21;81.37
72602;DHT22;60644;55.858;37.390;2022-11-12T14:51:49;12.27;81.23
72602;DHT22;60644;55.858;37.390;2022-11-12T14:54:39;12.32;81.04
72602;DHT22;60644;55.858;37.390;2022-11-12T14:57:29;12.35;80.88
72602;DHT22;60644;55.858;37.390;2022-11-12T15:00:34;12.36;80.70
72602;DHT22;60644;55.858;37.390;2022-11-12T15:03:29;12.37;80.36
72602;DHT22;60644;55.858;37.390;2022-11-12T15:06:19;12.44;80.44
72602;DHT22;60644;55.858;37.390;2022-11-12T15:09:04;12.44;80.40
72602;DHT22;60644;55.858;37.390;2022-11-12T15:11:49;12.45;80.48
72602;DHT22;60644;55.858;37.390;2022-11-12T15:14:34;12.41;80.39
72602;DHT22;60644;55.858;37.390;2022-11-12T15:17:32;12.46;80.27
72602;DHT22;60644;55.858;37.390;2022-11-12T15:20:17;12.47;80.23
72602;DHT22;60644;55.858;37.390;2022-11-12T15:23:03;12.47;80.12
72602;DHT22;60644;55.858;37.390;2022-11-12T15:25:59;12.50;79.80
72602;DHT22;60644;55.858;37.390;2022-11-12T15:29:01;12.55;79.76
72602;DHT22;60644;55.858;37.390;2022-11-12T15:31:57;12.55;79.67
72602;DHT22;60644;55.858;37.390;2022-11-12T15:37:35;12.53;79.24
72602;DHT22;60644;55.858;37.390;2022-11-12T15:40:24;12.53;79.27
72602;DHT22;60644;55.858;37.390;2022-11-12T15:43:17;12.57;79.06
72602;DHT22;60644;55.858;37.390;2022-11-12T15:46:03;12.59;79.01
72602;DHT22;60644;55.858;37.390;2022-11-12T15:48:47;12.52;78.90
72602;DHT22;60644;55.858;37.390;2022-11-12T15:51:32;12.59;78.98
72602;DHT22;60644;55.858;37.390;2022-11-12T15:54:17;12.56;78.79
72602;DHT22;60644;55.858;37.390;2022-11-12T15:57:02;12.59;78.72
72602;DHT22;60644;55.858;37.390;2022-11-12T16:00:13;12.60;78.47
72602;DHT22;60644;55.858;37.390;2022-11-12T16:03:16;12.64;77.76
72602;DHT22;60644;55.858;37.390;2022-11-12T16:06:01;12.64;77.48
72602;DHT22;60644;55.858;37.390;2022-11-12T16:08:46;12.69;77.32
72602;DHT22;60644;55.858;37.390;2022-11-12T16:11:30;12.69;75.91
72602;DHT22;60644;55.858;37.390;2022-11-12T16:14:21;12.73;76.64
72602;DHT22;60644;55.858;37.390;2022-11-12T16:17:10;12.72;76.86
72602;DHT22;60644;55.858;37.390;2022-11-12T16:19:55;12.71;77.09
72602;DHT22;60644;55.858;37.390;2022-11-12T16:22:39;12.67;76.88
72602;DHT22;60644;55.858;37.390;2022-11-12T16:25:28;12.71;77.08
72602;DHT22;60644;55.858;37.390;2022-11-12T16:28:17;12.71;76.06
72602;DHT22;60644;55.858;37.390;2022-11-12T16:31:02;12.74;75.73
72602;DHT22;60644;55.858;37.390;2022-11-12T16:33:46;12.66;75.74
72602;DHT22;60644;55.858;37.390;2022-11-12T16:36:31;12.66;75.38
72602;DHT22;60644;55.858;37.390;2022-11-12T16:39:16;12.71;74.90
72602;DHT22;60644;55.858;37.390;2022-11-12T16:42:01;12.70;74.91
72602;DHT22;60644;55.858;37.390;2022-11-12T16:44:45;12.70;74.14
72602;DHT22;60644;55.858;37.390;2022-11-12T16:47:30;12.71;74.38
72602;DHT22;60644;55.858;37.390;2022-11-12T16:50:17;12.73;74.36
72602;DHT22;60644;55.858;37.390;2022-11-12T16:53:02;12.73;74.26
72602;DHT22;60644;55.858;37.390;2022-11-12T16:55:47;12.72;73.85
72602;DHT22;60644;55.858;37.390;2022-11-12T16:58:33;12.71;73.39
72602;DHT22;60644;55.858;37.390;2022-11-12T17:01:30;12.61;72.96
72602;DHT22;60644;55.858;37.390;2022-11-12T17:04:14;12.57;72.66
72602;DHT22;60644;55.858;37.390;2022-11-12T17:06:59;12.56;71.72
72602;DHT22;60644;55.858;37.390;2022-11-12T17:09:43;12.59;72.03
72602;DHT22;60644;55.858;37.390;2022-11-12T17:12:31;12.60;72.93
72602;DHT22;60644;55.858;37.390;2022-11-12T17:15:15;12.60;72.26
72602;DHT22;60644;55.858;37.390;2022-11-12T17:18:00;12.63;72.38
72602;DHT22;60644;55.858;37.390;2022-11-12T17:20:46;12.61;72.33
72602;DHT22;60644;55.858;37.390;2022-11-12T17:23:31;12.64;72.44
72602;DHT22;60644;55.858;37.390;2022-11-12T17:26:18;12.60;71.71
72602;DHT22;60644;55.858;37.390;2022-11-12T17:29:03;12.65;72.33
72602;DHT22;60644;55.858;37.390;2022-11-12T17:31:48;12.67;72.52
72602;DHT22;60644;55.858;37.390;2022-11-12T17:34:32;12.58;71.07
72602;DHT22;60644;55.858;37.390;2022-11-12T17:37:17;12.60;71.87
72602;DHT22;60644;55.858;37.390;2022-11-12T17:40:02;12.62;71.93
72602;DHT22;60644;55.858;37.390;2022-11-12T17:42:47;12.63;71.50
72602;DHT22;60644;55.858;37.390;2022-11-12T17:45:32;12.57;70.78
72602;DHT22;60644;55.858;37.390;2022-11-12T17:48:19;12.56;69.90
72602;DHT22;60644;55.858;37.390;2022-11-12T17:51:13;12.50;69.72
72602;DHT22;60644;55.858;37.390;2022-11-12T17:53:57;12.57;70.65
72602;DHT22;60644;55.858;37.390;2022-11-12T17:56:42;12.58;70.81
72602;DHT22;60644;55.858;37.390;2022-11-12T17:59:27;12.53;69.68
72602;DHT22;60644;55.858;37.390;2022-11-12T18:02:16;12.48;69.58
72602;DHT22;60644;55.858;37.390;2022-11-12T18:05:04;12.47;69.95
72602;DHT22;60644;55.858;37.390;2022-11-12T18:07:48;12.46;69.61
72602;DHT22;60644;55.858;37.390;2022-11-12T18:10:33;12.42;68.78
72602;DHT22;60644;55.858;37.390;2022-11-12T18:13:17;12.44;69.61
72602;DHT22;60644;55.858;37.390;2022-11-12T18:16:11;12.42;68.97
72602;DHT22;60644;55.858;37.390;2022-11-12T18:18:56;12.36;68.27
72602;DHT22;60644;55.858;37.390;2022-11-12T18:21:41;12.33;67.66
72602;DHT22;60644;55.858;37.390;2022-11-12T18:24:25;12.36;67.91
72602;DHT22;60644;55.858;37.390;2022-11-12T18:27:10;12.37;68.19
72602;DHT22;60644;55.858;37.390;2022-11-12T18:29:54;12.37;68.77
72602;DHT22;60644;55.858;37.390;2022-11-12T18:32:39;12.35;68.06
72602;DHT22;60644;55.858;37.390;2022-11-12T18:35:26;12.32;68.02
72602;DHT22;60644;55.858;37.390;2022-11-12T18:38:11;12.33;68.86
72602;DHT22;60644;55.858;37.390;2022-11-12T18:41:07;12.32;67.59
72602;DHT22;60644;55.858;37.390;2022-11-12T18:43:52;12.31;67.74
72602;DHT22;60644;55.858;37.390;2022-11-12T18:46:37;12.29;66.97
72602;DHT22;60644;55.858;37.390;2022-11-12T18:49:22;12.29;68.43
72602;DHT22;60644;55.858;37.390;2022-11-12T18:52:06;12.21;66.52
72602;DHT22;60644;55.858;37.390;2022-11-12T18:54:51;12.11;66.81
72602;DHT22;60644;55.858;37.390;2022-11-12T18:57:35;12.19;68.10
72602;DHT22;60644;55.858;37.390;2022-11-12T19:00:20;12.14;65.91
72602;DHT22;60644;55.858;37.390;2022-11-12T19:03:04;12.12;66.60
72602;DHT22;60644;55.858;37.390;2022-11-12T19:05:56;12.14;65.65